<?xml version="1.0" encoding="UTF-8" standalone="no" ?>
<gpx xmlns="http://www.topografix.com/GPX/1/1" xmlns:xsi="http://www.w3.org/2001/XMLSchema-instance" xsi:schemaLocation="http://www.topografix.com/GPX/1/1 http://www.topografix.com/GPX/1/1/gpx.xsd" version="1.1" creator="VisuGPX - https://www.visugpx.com">
  <metadata>
    <name>Venise-Pamir J86 - Tadjikistan</name>
    <desc><![CDATA[M41 - Tres beaux paysages, peu de circulation...                     ]]></desc>
  </metadata>
  <trk>
    <name><![CDATA[Venise-Pamir J86 - Tadjikistan_1]]></name>
    <trkseg>
      <trkpt lat="37.4872" lon="71.56035">
        <ele>2167.6</ele>
        <time>2018-08-26T03:06:35.000Z</time>
      </trkpt>
      <trkpt lat="37.4867" lon="71.56199">
        <ele>2167.2</ele>
        <time>2018-08-26T03:07:36.000Z</time>
      </trkpt>
      <trkpt lat="37.48668" lon="71.56371">
        <ele>2154.7</ele>
        <time>2018-08-26T03:29:55.000Z</time>
      </trkpt>
      <trkpt lat="37.48677" lon="71.56583">
        <ele>2153.7</ele>
        <time>2018-08-26T03:30:56.000Z</time>
      </trkpt>
      <trkpt lat="37.48801" lon="71.56509">
        <ele>2143.2</ele>
        <time>2018-08-26T03:31:57.000Z</time>
      </trkpt>
      <trkpt lat="37.48916" lon="71.56598">
        <ele>2130.7</ele>
        <time>2018-08-26T03:33:02.000Z</time>
      </trkpt>
      <trkpt lat="37.48888" lon="71.56936">
        <ele>2127.3</ele>
        <time>2018-08-26T03:34:03.000Z</time>
      </trkpt>
      <trkpt lat="37.48799" lon="71.57212">
        <ele>2124.6</ele>
        <time>2018-08-26T03:35:04.000Z</time>
      </trkpt>
      <trkpt lat="37.48734" lon="71.5737">
        <ele>2126.5</ele>
        <time>2018-08-26T03:36:09.000Z</time>
      </trkpt>
      <trkpt lat="37.48582" lon="71.57796">
        <ele>2118</ele>
        <time>2018-08-26T03:37:10.000Z</time>
      </trkpt>
      <trkpt lat="37.48479" lon="71.58082">
        <ele>2121.7</ele>
        <time>2018-08-26T03:38:11.000Z</time>
      </trkpt>
      <trkpt lat="37.4866" lon="71.58164">
        <ele>2129.1</ele>
        <time>2018-08-26T03:39:12.000Z</time>
      </trkpt>
      <trkpt lat="37.48801" lon="71.58186">
        <ele>2121.4</ele>
        <time>2018-08-26T03:40:13.000Z</time>
      </trkpt>
      <trkpt lat="37.48933" lon="71.58145">
        <ele>2130</ele>
        <time>2018-08-26T03:41:32.000Z</time>
      </trkpt>
      <trkpt lat="37.48917" lon="71.58314">
        <ele>2133.7</ele>
        <time>2018-08-26T03:44:12.000Z</time>
      </trkpt>
      <trkpt lat="37.48881" lon="71.58481">
        <ele>2141.2</ele>
        <time>2018-08-26T03:45:25.000Z</time>
      </trkpt>
      <trkpt lat="37.48852" lon="71.58648">
        <ele>2150.6</ele>
        <time>2018-08-26T03:46:26.000Z</time>
      </trkpt>
      <trkpt lat="37.48708" lon="71.58922">
        <ele>2160.9</ele>
        <time>2018-08-26T03:47:26.000Z</time>
      </trkpt>
      <trkpt lat="37.48559" lon="71.59191">
        <ele>2162.5</ele>
        <time>2018-08-26T03:48:27.000Z</time>
      </trkpt>
      <trkpt lat="37.48678" lon="71.59273">
        <ele>2173.8</ele>
        <time>2018-08-26T03:49:48.000Z</time>
      </trkpt>
      <trkpt lat="37.48895" lon="71.59408">
        <ele>2172.3</ele>
        <time>2018-08-26T03:50:49.000Z</time>
      </trkpt>
      <trkpt lat="37.49185" lon="71.5949">
        <ele>2191.3</ele>
        <time>2018-08-26T03:51:50.000Z</time>
      </trkpt>
      <trkpt lat="37.49465" lon="71.59598">
        <ele>2195.8</ele>
        <time>2018-08-26T03:52:51.000Z</time>
      </trkpt>
      <trkpt lat="37.49783" lon="71.59718">
        <ele>2197.1</ele>
        <time>2018-08-26T03:53:52.000Z</time>
      </trkpt>
      <trkpt lat="37.5006" lon="71.59726">
        <ele>2195.1</ele>
        <time>2018-08-26T03:54:53.000Z</time>
      </trkpt>
      <trkpt lat="37.50195" lon="71.59706">
        <ele>2207.7</ele>
        <time>2018-08-26T03:56:29.000Z</time>
      </trkpt>
      <trkpt lat="37.50328" lon="71.59673">
        <ele>2230.5</ele>
        <time>2018-08-26T03:57:50.000Z</time>
      </trkpt>
      <trkpt lat="37.50645" lon="71.5966">
        <ele>2185.9</ele>
        <time>2018-08-26T03:58:51.000Z</time>
      </trkpt>
      <trkpt lat="37.50877" lon="71.59599">
        <ele>2186.3</ele>
        <time>2018-08-26T03:59:52.000Z</time>
      </trkpt>
      <trkpt lat="37.51008" lon="71.59554">
        <ele>2198.6</ele>
        <time>2018-08-26T04:01:25.000Z</time>
      </trkpt>
      <trkpt lat="37.51131" lon="71.59481">
        <ele>2221</ele>
        <time>2018-08-26T04:03:10.000Z</time>
      </trkpt>
      <trkpt lat="37.51244" lon="71.59389">
        <ele>2221.2</ele>
        <time>2018-08-26T04:07:21.000Z</time>
      </trkpt>
      <trkpt lat="37.5137" lon="71.59324">
        <ele>2238.4</ele>
        <time>2018-08-26T04:08:47.000Z</time>
      </trkpt>
      <trkpt lat="37.51482" lon="71.59229">
        <ele>2251.3</ele>
        <time>2018-08-26T04:10:26.000Z</time>
      </trkpt>
      <trkpt lat="37.51606" lon="71.59159">
        <ele>2256.2</ele>
        <time>2018-08-26T04:11:39.000Z</time>
      </trkpt>
      <trkpt lat="37.51796" lon="71.59166">
        <ele>2258.7</ele>
        <time>2018-08-26T04:12:40.000Z</time>
      </trkpt>
      <trkpt lat="37.52021" lon="71.59241">
        <ele>2259.7</ele>
        <time>2018-08-26T04:13:40.000Z</time>
      </trkpt>
      <trkpt lat="37.52188" lon="71.59397">
        <ele>2253.9</ele>
        <time>2018-08-26T04:14:41.000Z</time>
      </trkpt>
      <trkpt lat="37.52414" lon="71.59889">
        <ele>2233.5</ele>
        <time>2018-08-26T04:15:41.000Z</time>
      </trkpt>
      <trkpt lat="37.52452" lon="71.60464">
        <ele>2207.4</ele>
        <time>2018-08-26T04:16:42.000Z</time>
      </trkpt>
      <trkpt lat="37.52426" lon="71.60633">
        <ele>2226.4</ele>
        <time>2018-08-26T04:31:52.000Z</time>
      </trkpt>
      <trkpt lat="37.52395" lon="71.60801">
        <ele>2231.8</ele>
        <time>2018-08-26T04:33:22.000Z</time>
      </trkpt>
      <trkpt lat="37.52372" lon="71.61021">
        <ele>2230.4</ele>
        <time>2018-08-26T04:34:22.000Z</time>
      </trkpt>
      <trkpt lat="37.52206" lon="71.61458">
        <ele>2234.5</ele>
        <time>2018-08-26T04:35:23.000Z</time>
      </trkpt>
      <trkpt lat="37.51944" lon="71.61716">
        <ele>2240.4</ele>
        <time>2018-08-26T04:36:24.000Z</time>
      </trkpt>
      <trkpt lat="37.51851" lon="71.62006">
        <ele>2238.4</ele>
        <time>2018-08-26T04:37:25.000Z</time>
      </trkpt>
      <trkpt lat="37.51747" lon="71.62271">
        <ele>2243.3</ele>
        <time>2018-08-26T04:38:26.000Z</time>
      </trkpt>
      <trkpt lat="37.51723" lon="71.62613">
        <ele>2237.6</ele>
        <time>2018-08-26T04:39:27.000Z</time>
      </trkpt>
      <trkpt lat="37.51778" lon="71.63037">
        <ele>2241</ele>
        <time>2018-08-26T04:40:28.000Z</time>
      </trkpt>
      <trkpt lat="37.51885" lon="71.63238">
        <ele>2247.1</ele>
        <time>2018-08-26T04:41:29.000Z</time>
      </trkpt>
      <trkpt lat="37.51972" lon="71.63636">
        <ele>2251</ele>
        <time>2018-08-26T04:42:30.000Z</time>
      </trkpt>
      <trkpt lat="37.52076" lon="71.63891">
        <ele>2252.6</ele>
        <time>2018-08-26T04:43:31.000Z</time>
      </trkpt>
      <trkpt lat="37.52267" lon="71.64143">
        <ele>2260.6</ele>
        <time>2018-08-26T04:44:32.000Z</time>
      </trkpt>
      <trkpt lat="37.52424" lon="71.64282">
        <ele>2270.7</ele>
        <time>2018-08-26T04:45:33.000Z</time>
      </trkpt>
      <trkpt lat="37.52534" lon="71.64384">
        <ele>2274.6</ele>
        <time>2018-08-26T04:46:38.000Z</time>
      </trkpt>
      <trkpt lat="37.5268" lon="71.64548">
        <ele>2275.4</ele>
        <time>2018-08-26T04:47:39.000Z</time>
      </trkpt>
      <trkpt lat="37.52761" lon="71.6474">
        <ele>2281.9</ele>
        <time>2018-08-26T04:48:40.000Z</time>
      </trkpt>
      <trkpt lat="37.52828" lon="71.64906">
        <ele>2290.2</ele>
        <time>2018-08-26T04:49:41.000Z</time>
      </trkpt>
      <trkpt lat="37.52897" lon="71.65053">
        <ele>2297.6</ele>
        <time>2018-08-26T04:50:51.000Z</time>
      </trkpt>
      <trkpt lat="37.52965" lon="71.652">
        <ele>2300.7</ele>
        <time>2018-08-26T04:52:08.000Z</time>
      </trkpt>
      <trkpt lat="37.53032" lon="71.65349">
        <ele>2313.6</ele>
        <time>2018-08-26T04:53:27.000Z</time>
      </trkpt>
      <trkpt lat="37.53131" lon="71.65517">
        <ele>2316.4</ele>
        <time>2018-08-26T04:54:28.000Z</time>
      </trkpt>
      <trkpt lat="37.53315" lon="71.65893">
        <ele>2300.1</ele>
        <time>2018-08-26T04:55:29.000Z</time>
      </trkpt>
      <trkpt lat="37.53342" lon="71.66061">
        <ele>2303.2</ele>
        <time>2018-08-26T04:56:45.000Z</time>
      </trkpt>
      <trkpt lat="37.53456" lon="71.66338">
        <ele>2307.1</ele>
        <time>2018-08-26T04:57:46.000Z</time>
      </trkpt>
      <trkpt lat="37.53604" lon="71.66672">
        <ele>2297.5</ele>
        <time>2018-08-26T04:58:47.000Z</time>
      </trkpt>
      <trkpt lat="37.53746" lon="71.66978">
        <ele>2276.9</ele>
        <time>2018-08-26T04:59:48.000Z</time>
      </trkpt>
      <trkpt lat="37.53822" lon="71.6718">
        <ele>2303.6</ele>
        <time>2018-08-26T05:00:48.000Z</time>
      </trkpt>
      <trkpt lat="37.53902" lon="71.67492">
        <ele>2320.7</ele>
        <time>2018-08-26T05:01:49.000Z</time>
      </trkpt>
      <trkpt lat="37.54101" lon="71.67882">
        <ele>2318.7</ele>
        <time>2018-08-26T05:02:50.000Z</time>
      </trkpt>
      <trkpt lat="37.54056" lon="71.68216">
        <ele>2323.1</ele>
        <time>2018-08-26T05:03:51.000Z</time>
      </trkpt>
      <trkpt lat="37.54036" lon="71.68536">
        <ele>2321.3</ele>
        <time>2018-08-26T05:04:52.000Z</time>
      </trkpt>
      <trkpt lat="37.54013" lon="71.68764">
        <ele>2327.3</ele>
        <time>2018-08-26T05:05:53.000Z</time>
      </trkpt>
      <trkpt lat="37.54018" lon="71.69043">
        <ele>2327.6</ele>
        <time>2018-08-26T05:06:54.000Z</time>
      </trkpt>
      <trkpt lat="37.54107" lon="71.69378">
        <ele>2333.5</ele>
        <time>2018-08-26T05:07:55.000Z</time>
      </trkpt>
      <trkpt lat="37.54118" lon="71.69668">
        <ele>2336.6</ele>
        <time>2018-08-26T05:08:55.000Z</time>
      </trkpt>
      <trkpt lat="37.54133" lon="71.69842">
        <ele>2339.6</ele>
        <time>2018-08-26T05:13:23.000Z</time>
      </trkpt>
      <trkpt lat="37.54143" lon="71.70191">
        <ele>2335.4</ele>
        <time>2018-08-26T05:14:24.000Z</time>
      </trkpt>
      <trkpt lat="37.54156" lon="71.70452">
        <ele>2324.6</ele>
        <time>2018-08-26T05:15:25.000Z</time>
      </trkpt>
      <trkpt lat="37.54288" lon="71.70819">
        <ele>2312.2</ele>
        <time>2018-08-26T05:16:26.000Z</time>
      </trkpt>
      <trkpt lat="37.54433" lon="71.71142">
        <ele>2313.2</ele>
        <time>2018-08-26T05:17:27.000Z</time>
      </trkpt>
      <trkpt lat="37.54587" lon="71.71303">
        <ele>2332.5</ele>
        <time>2018-08-26T05:18:28.000Z</time>
      </trkpt>
      <trkpt lat="37.54714" lon="71.71366">
        <ele>2360.9</ele>
        <time>2018-08-26T05:19:49.000Z</time>
      </trkpt>
      <trkpt lat="37.54838" lon="71.71434">
        <ele>2367.5</ele>
        <time>2018-08-26T05:21:14.000Z</time>
      </trkpt>
      <trkpt lat="37.55011" lon="71.71504">
        <ele>2368.9</ele>
        <time>2018-08-26T05:22:15.000Z</time>
      </trkpt>
      <trkpt lat="37.55324" lon="71.71624">
        <ele>2360.7</ele>
        <time>2018-08-26T05:23:16.000Z</time>
      </trkpt>
      <trkpt lat="37.55617" lon="71.71654">
        <ele>2365.6</ele>
        <time>2018-08-26T05:24:17.000Z</time>
      </trkpt>
      <trkpt lat="37.55753" lon="71.71746">
        <ele>2372.6</ele>
        <time>2018-08-26T05:25:18.000Z</time>
      </trkpt>
      <trkpt lat="37.55843" lon="71.71874">
        <ele>2374.3</ele>
        <time>2018-08-26T05:34:57.000Z</time>
      </trkpt>
      <trkpt lat="37.55941" lon="71.71995">
        <ele>2373.4</ele>
        <time>2018-08-26T05:36:04.000Z</time>
      </trkpt>
      <trkpt lat="37.56091" lon="71.72111">
        <ele>2372.5</ele>
        <time>2018-08-26T05:37:05.000Z</time>
      </trkpt>
      <trkpt lat="37.56209" lon="71.72196">
        <ele>2385</ele>
        <time>2018-08-26T05:38:56.000Z</time>
      </trkpt>
      <trkpt lat="37.56295" lon="71.72337">
        <ele>2383.5</ele>
        <time>2018-08-26T05:39:57.000Z</time>
      </trkpt>
      <trkpt lat="37.56468" lon="71.72518">
        <ele>2385.3</ele>
        <time>2018-08-26T05:41:45.000Z</time>
      </trkpt>
      <trkpt lat="37.56591" lon="71.727">
        <ele>2382.8</ele>
        <time>2018-08-26T05:42:46.000Z</time>
      </trkpt>
      <trkpt lat="37.56701" lon="71.72918">
        <ele>2381</ele>
        <time>2018-08-26T05:43:47.000Z</time>
      </trkpt>
      <trkpt lat="37.56765" lon="71.73098">
        <ele>2380.5</ele>
        <time>2018-08-26T05:44:48.000Z</time>
      </trkpt>
      <trkpt lat="37.58594" lon="71.72598">
        <ele>2399.3</ele>
        <time>2018-08-26T05:56:26.000Z</time>
      </trkpt>
      <trkpt lat="37.58729" lon="71.72623">
        <ele>2437.2</ele>
        <time>2018-08-26T05:57:28.000Z</time>
      </trkpt>
      <trkpt lat="37.58885" lon="71.72677">
        <ele>2450.6</ele>
        <time>2018-08-26T05:58:29.000Z</time>
      </trkpt>
      <trkpt lat="37.59148" lon="71.72908">
        <ele>2448.9</ele>
        <time>2018-08-26T05:59:30.000Z</time>
      </trkpt>
      <trkpt lat="37.59333" lon="71.7312">
        <ele>2441</ele>
        <time>2018-08-26T06:00:31.000Z</time>
      </trkpt>
      <trkpt lat="37.59443" lon="71.73223">
        <ele>2442</ele>
        <time>2018-08-26T06:01:47.000Z</time>
      </trkpt>
      <trkpt lat="37.5955" lon="71.73333">
        <ele>2441.4</ele>
        <time>2018-08-26T06:02:50.000Z</time>
      </trkpt>
      <trkpt lat="37.59656" lon="71.73441">
        <ele>2439.3</ele>
        <time>2018-08-26T06:04:02.000Z</time>
      </trkpt>
      <trkpt lat="37.59737" lon="71.73578">
        <ele>2443.3</ele>
        <time>2018-08-26T06:05:16.000Z</time>
      </trkpt>
      <trkpt lat="37.59837" lon="71.73702">
        <ele>2442.7</ele>
        <time>2018-08-26T06:06:16.000Z</time>
      </trkpt>
      <trkpt lat="37.59937" lon="71.73872">
        <ele>2444.9</ele>
        <time>2018-08-26T06:07:17.000Z</time>
      </trkpt>
      <trkpt lat="37.60031" lon="71.74044">
        <ele>2450.8</ele>
        <time>2018-08-26T06:08:18.000Z</time>
      </trkpt>
      <trkpt lat="37.60139" lon="71.74248">
        <ele>2461.3</ele>
        <time>2018-08-26T06:09:18.000Z</time>
      </trkpt>
      <trkpt lat="37.60257" lon="71.74455">
        <ele>2466.9</ele>
        <time>2018-08-26T06:10:19.000Z</time>
      </trkpt>
      <trkpt lat="37.60379" lon="71.74645">
        <ele>2474.7</ele>
        <time>2018-08-26T06:11:20.000Z</time>
      </trkpt>
      <trkpt lat="37.60483" lon="71.74806">
        <ele>2477.6</ele>
        <time>2018-08-26T06:12:21.000Z</time>
      </trkpt>
      <trkpt lat="37.60574" lon="71.74932">
        <ele>2481.5</ele>
        <time>2018-08-26T06:13:22.000Z</time>
      </trkpt>
      <trkpt lat="37.60715" lon="71.75148">
        <ele>2485.4</ele>
        <time>2018-08-26T06:14:23.000Z</time>
      </trkpt>
      <trkpt lat="37.60832" lon="71.75291">
        <ele>2489</ele>
        <time>2018-08-26T06:15:24.000Z</time>
      </trkpt>
      <trkpt lat="37.60939" lon="71.75412">
        <ele>2491.9</ele>
        <time>2018-08-26T06:16:25.000Z</time>
      </trkpt>
      <trkpt lat="37.61045" lon="71.75521">
        <ele>2494</ele>
        <time>2018-08-26T06:17:32.000Z</time>
      </trkpt>
      <trkpt lat="37.61187" lon="71.75652">
        <ele>2494.3</ele>
        <time>2018-08-26T06:18:33.000Z</time>
      </trkpt>
      <trkpt lat="37.6151" lon="71.75831">
        <ele>2493.3</ele>
        <time>2018-08-26T06:19:39.000Z</time>
      </trkpt>
      <trkpt lat="37.61866" lon="71.75874">
        <ele>2481.4</ele>
        <time>2018-08-26T06:20:41.000Z</time>
      </trkpt>
      <trkpt lat="37.6203" lon="71.75974">
        <ele>2478.4</ele>
        <time>2018-08-26T06:21:42.000Z</time>
      </trkpt>
      <trkpt lat="37.62218" lon="71.76058">
        <ele>2477.4</ele>
        <time>2018-08-26T06:22:43.000Z</time>
      </trkpt>
      <trkpt lat="37.62337" lon="71.76143">
        <ele>2482.9</ele>
        <time>2018-08-26T06:25:57.000Z</time>
      </trkpt>
      <trkpt lat="37.62469" lon="71.76188">
        <ele>2485.5</ele>
        <time>2018-08-26T06:27:37.000Z</time>
      </trkpt>
      <trkpt lat="37.62805" lon="71.76348">
        <ele>2491.8</ele>
        <time>2018-08-26T06:28:38.000Z</time>
      </trkpt>
      <trkpt lat="37.63152" lon="71.76669">
        <ele>2501.4</ele>
        <time>2018-08-26T06:29:39.000Z</time>
      </trkpt>
      <trkpt lat="37.63481" lon="71.77012">
        <ele>2507.8</ele>
        <time>2018-08-26T06:30:40.000Z</time>
      </trkpt>
      <trkpt lat="37.6359" lon="71.77114">
        <ele>2510</ele>
        <time>2018-08-26T06:32:04.000Z</time>
      </trkpt>
      <trkpt lat="37.63698" lon="71.77217">
        <ele>2509.1</ele>
        <time>2018-08-26T06:33:21.000Z</time>
      </trkpt>
      <trkpt lat="37.63959" lon="71.77444">
        <ele>2517.7</ele>
        <time>2018-08-26T06:34:22.000Z</time>
      </trkpt>
      <trkpt lat="37.642" lon="71.77717">
        <ele>2530.6</ele>
        <time>2018-08-26T06:35:23.000Z</time>
      </trkpt>
      <trkpt lat="37.64383" lon="71.78184">
        <ele>2544.2</ele>
        <time>2018-08-26T06:36:24.000Z</time>
      </trkpt>
      <trkpt lat="37.64341" lon="71.78488">
        <ele>2541.6</ele>
        <time>2018-08-26T06:37:25.000Z</time>
      </trkpt>
      <trkpt lat="37.64261" lon="71.78739">
        <ele>2533</ele>
        <time>2018-08-26T06:38:26.000Z</time>
      </trkpt>
      <trkpt lat="37.64236" lon="71.78909">
        <ele>2516.2</ele>
        <time>2018-08-26T06:39:32.000Z</time>
      </trkpt>
      <trkpt lat="37.64351" lon="71.79218">
        <ele>2507</ele>
        <time>2018-08-26T06:40:32.000Z</time>
      </trkpt>
      <trkpt lat="37.64547" lon="71.79283">
        <ele>2525.7</ele>
        <time>2018-08-26T06:41:33.000Z</time>
      </trkpt>
      <trkpt lat="37.64678" lon="71.79334">
        <ele>2553.6</ele>
        <time>2018-08-26T06:42:50.000Z</time>
      </trkpt>
      <trkpt lat="37.64818" lon="71.79531">
        <ele>2565.2</ele>
        <time>2018-08-26T06:43:51.000Z</time>
      </trkpt>
      <trkpt lat="37.65003" lon="71.79837">
        <ele>2576.8</ele>
        <time>2018-08-26T06:44:52.000Z</time>
      </trkpt>
      <trkpt lat="37.65095" lon="71.80116">
        <ele>2584.9</ele>
        <time>2018-08-26T06:45:53.000Z</time>
      </trkpt>
      <trkpt lat="37.65186" lon="71.80336">
        <ele>2597.4</ele>
        <time>2018-08-26T06:46:54.000Z</time>
      </trkpt>
      <trkpt lat="37.65254" lon="71.80484">
        <ele>2600.2</ele>
        <time>2018-08-26T06:52:54.000Z</time>
      </trkpt>
      <trkpt lat="37.65332" lon="71.80623">
        <ele>2605.1</ele>
        <time>2018-08-26T06:54:18.000Z</time>
      </trkpt>
      <trkpt lat="37.65431" lon="71.8074">
        <ele>2608.4</ele>
        <time>2018-08-26T06:55:28.000Z</time>
      </trkpt>
      <trkpt lat="37.65578" lon="71.8081">
        <ele>2607.1</ele>
        <time>2018-08-26T06:57:08.000Z</time>
      </trkpt>
      <trkpt lat="37.6578" lon="71.81027">
        <ele>2603.4</ele>
        <time>2018-08-26T06:58:09.000Z</time>
      </trkpt>
      <trkpt lat="37.65969" lon="71.81284">
        <ele>2599.6</ele>
        <time>2018-08-26T06:59:10.000Z</time>
      </trkpt>
      <trkpt lat="37.66107" lon="71.81724">
        <ele>2596</ele>
        <time>2018-08-26T07:00:10.000Z</time>
      </trkpt>
      <trkpt lat="37.66308" lon="71.82018">
        <ele>2592</ele>
        <time>2018-08-26T07:01:11.000Z</time>
      </trkpt>
      <trkpt lat="37.66623" lon="71.82316">
        <ele>2589.1</ele>
        <time>2018-08-26T07:02:12.000Z</time>
      </trkpt>
      <trkpt lat="37.66869" lon="71.82719">
        <ele>2587.7</ele>
        <time>2018-08-26T07:03:13.000Z</time>
      </trkpt>
      <trkpt lat="37.67028" lon="71.82914">
        <ele>2587.3</ele>
        <time>2018-08-26T07:04:14.000Z</time>
      </trkpt>
      <trkpt lat="37.67131" lon="71.83101">
        <ele>2588.6</ele>
        <time>2018-08-26T07:05:15.000Z</time>
      </trkpt>
      <trkpt lat="37.67212" lon="71.83238">
        <ele>2592.8</ele>
        <time>2018-08-26T07:06:50.000Z</time>
      </trkpt>
      <trkpt lat="37.67292" lon="71.83393">
        <ele>2602</ele>
        <time>2018-08-26T07:11:04.000Z</time>
      </trkpt>
      <trkpt lat="37.67424" lon="71.83521">
        <ele>2602.6</ele>
        <time>2018-08-26T07:12:05.000Z</time>
      </trkpt>
      <trkpt lat="37.67574" lon="71.83592">
        <ele>2600.7</ele>
        <time>2018-08-26T07:13:11.000Z</time>
      </trkpt>
      <trkpt lat="37.677" lon="71.83777">
        <ele>2594.4</ele>
        <time>2018-08-26T07:14:11.000Z</time>
      </trkpt>
      <trkpt lat="37.6785" lon="71.84043">
        <ele>2592.2</ele>
        <time>2018-08-26T07:15:34.000Z</time>
      </trkpt>
      <trkpt lat="37.68139" lon="71.84707">
        <ele>2615.1</ele>
        <time>2018-08-26T07:54:49.000Z</time>
      </trkpt>
      <trkpt lat="37.68208" lon="71.84855">
        <ele>2625.1</ele>
        <time>2018-08-26T07:56:01.000Z</time>
      </trkpt>
      <trkpt lat="37.68309" lon="71.8512">
        <ele>2624.2</ele>
        <time>2018-08-26T07:57:02.000Z</time>
      </trkpt>
      <trkpt lat="37.68661" lon="71.85708">
        <ele>2602.2</ele>
        <time>2018-08-26T07:58:03.000Z</time>
      </trkpt>
      <trkpt lat="37.68909" lon="71.8612">
        <ele>2602.2</ele>
        <time>2018-08-26T07:59:04.000Z</time>
      </trkpt>
      <trkpt lat="37.69098" lon="71.86472">
        <ele>2602.3</ele>
        <time>2018-08-26T08:00:05.000Z</time>
      </trkpt>
      <trkpt lat="37.6925" lon="71.86762">
        <ele>2608</ele>
        <time>2018-08-26T08:01:06.000Z</time>
      </trkpt>
      <trkpt lat="37.69338" lon="71.86892">
        <ele>2614</ele>
        <time>2018-08-26T08:02:13.000Z</time>
      </trkpt>
      <trkpt lat="37.69429" lon="71.87018">
        <ele>2625</ele>
        <time>2018-08-26T08:03:56.000Z</time>
      </trkpt>
      <trkpt lat="37.69521" lon="71.87147">
        <ele>2633.5</ele>
        <time>2018-08-26T08:05:12.000Z</time>
      </trkpt>
      <trkpt lat="37.69668" lon="71.87525">
        <ele>2629.5</ele>
        <time>2018-08-26T08:06:13.000Z</time>
      </trkpt>
      <trkpt lat="37.69847" lon="71.87984">
        <ele>2621.1</ele>
        <time>2018-08-26T08:07:14.000Z</time>
      </trkpt>
      <trkpt lat="37.70169" lon="71.88452">
        <ele>2607.1</ele>
        <time>2018-08-26T08:08:14.000Z</time>
      </trkpt>
      <trkpt lat="37.70364" lon="71.88747">
        <ele>2617.6</ele>
        <time>2018-08-26T08:09:15.000Z</time>
      </trkpt>
      <trkpt lat="37.70562" lon="71.88981">
        <ele>2617.5</ele>
        <time>2018-08-26T08:10:16.000Z</time>
      </trkpt>
      <trkpt lat="37.70697" lon="71.89233">
        <ele>2619.2</ele>
        <time>2018-08-26T08:11:16.000Z</time>
      </trkpt>
      <trkpt lat="37.7077" lon="71.89382">
        <ele>2619.7</ele>
        <time>2018-08-26T09:10:40.000Z</time>
      </trkpt>
      <trkpt lat="37.70894" lon="71.89625">
        <ele>2625.2</ele>
        <time>2018-08-26T09:11:40.000Z</time>
      </trkpt>
      <trkpt lat="37.70969" lon="71.89806">
        <ele>2626.2</ele>
        <time>2018-08-26T09:12:41.000Z</time>
      </trkpt>
      <trkpt lat="37.70929" lon="71.90105">
        <ele>2624.5</ele>
        <time>2018-08-26T09:13:42.000Z</time>
      </trkpt>
      <trkpt lat="37.70858" lon="71.90386">
        <ele>2641.2</ele>
        <time>2018-08-26T09:14:43.000Z</time>
      </trkpt>
      <trkpt lat="37.70809" lon="71.90546">
        <ele>2686.4</ele>
        <time>2018-08-26T09:16:21.000Z</time>
      </trkpt>
      <trkpt lat="37.70738" lon="71.90692">
        <ele>2726.5</ele>
        <time>2018-08-26T09:17:32.000Z</time>
      </trkpt>
      <trkpt lat="37.70637" lon="71.90806">
        <ele>2657.5</ele>
        <time>2018-08-26T09:32:10.000Z</time>
      </trkpt>
      <trkpt lat="37.7054" lon="71.90948">
        <ele>2656.5</ele>
        <time>2018-08-26T09:33:11.000Z</time>
      </trkpt>
      <trkpt lat="37.70451" lon="71.91081">
        <ele>2662</ele>
        <time>2018-08-26T09:36:02.000Z</time>
      </trkpt>
      <trkpt lat="37.7031" lon="71.91289">
        <ele>2657.1</ele>
        <time>2018-08-26T09:37:03.000Z</time>
      </trkpt>
      <trkpt lat="37.70174" lon="71.91519">
        <ele>2665.7</ele>
        <time>2018-08-26T09:38:04.000Z</time>
      </trkpt>
      <trkpt lat="37.69997" lon="71.91853">
        <ele>2662.8</ele>
        <time>2018-08-26T09:39:05.000Z</time>
      </trkpt>
      <trkpt lat="37.69811" lon="71.91987">
        <ele>2659.5</ele>
        <time>2018-08-26T09:40:05.000Z</time>
      </trkpt>
      <trkpt lat="37.69796" lon="71.92158">
        <ele>2671.2</ele>
        <time>2018-08-26T09:41:29.000Z</time>
      </trkpt>
      <trkpt lat="37.69783" lon="71.92328">
        <ele>2687.9</ele>
        <time>2018-08-26T09:42:37.000Z</time>
      </trkpt>
      <trkpt lat="37.69771" lon="71.92499">
        <ele>2695.8</ele>
        <time>2018-08-26T09:43:39.000Z</time>
      </trkpt>
      <trkpt lat="37.69749" lon="71.92718">
        <ele>2690.8</ele>
        <time>2018-08-26T09:44:40.000Z</time>
      </trkpt>
      <trkpt lat="37.69725" lon="71.93005">
        <ele>2694.9</ele>
        <time>2018-08-26T09:45:41.000Z</time>
      </trkpt>
      <trkpt lat="37.69729" lon="71.93184">
        <ele>2694.9</ele>
        <time>2018-08-26T09:47:01.000Z</time>
      </trkpt>
      <trkpt lat="37.69876" lon="71.93728">
        <ele>2686.7</ele>
        <time>2018-08-26T09:48:02.000Z</time>
      </trkpt>
      <trkpt lat="37.70156" lon="71.93923">
        <ele>2688.5</ele>
        <time>2018-08-26T09:49:03.000Z</time>
      </trkpt>
      <trkpt lat="37.70433" lon="71.93946">
        <ele>2690.3</ele>
        <time>2018-08-26T09:50:04.000Z</time>
      </trkpt>
      <trkpt lat="37.70674" lon="71.93976">
        <ele>2691.8</ele>
        <time>2018-08-26T09:51:04.000Z</time>
      </trkpt>
      <trkpt lat="37.70809" lon="71.93991">
        <ele>2702.4</ele>
        <time>2018-08-26T09:52:37.000Z</time>
      </trkpt>
      <trkpt lat="37.70944" lon="71.94007">
        <ele>2715</ele>
        <time>2018-08-26T09:54:08.000Z</time>
      </trkpt>
      <trkpt lat="37.71112" lon="71.93972">
        <ele>2714.9</ele>
        <time>2018-08-26T09:55:09.000Z</time>
      </trkpt>
      <trkpt lat="37.71344" lon="71.93977">
        <ele>2716</ele>
        <time>2018-08-26T09:56:10.000Z</time>
      </trkpt>
      <trkpt lat="37.71558" lon="71.9409">
        <ele>2718.1</ele>
        <time>2018-08-26T09:57:11.000Z</time>
      </trkpt>
      <trkpt lat="37.71707" lon="71.94255">
        <ele>2724</ele>
        <time>2018-08-26T09:58:12.000Z</time>
      </trkpt>
      <trkpt lat="37.7178" lon="71.94552">
        <ele>2725.5</ele>
        <time>2018-08-26T09:59:13.000Z</time>
      </trkpt>
      <trkpt lat="37.71777" lon="71.94849">
        <ele>2727.8</ele>
        <time>2018-08-26T10:00:14.000Z</time>
      </trkpt>
      <trkpt lat="37.71755" lon="71.9502">
        <ele>2729.6</ele>
        <time>2018-08-26T10:16:04.000Z</time>
      </trkpt>
      <trkpt lat="37.71698" lon="71.95277">
        <ele>2735.1</ele>
        <time>2018-08-26T10:17:05.000Z</time>
      </trkpt>
      <trkpt lat="37.71615" lon="71.95826">
        <ele>2717.7</ele>
        <time>2018-08-26T10:18:06.000Z</time>
      </trkpt>
      <trkpt lat="37.71636" lon="71.96117">
        <ele>2721.6</ele>
        <time>2018-08-26T10:19:07.000Z</time>
      </trkpt>
      <trkpt lat="37.71402" lon="71.96347">
        <ele>2719.9</ele>
        <time>2018-08-26T10:20:08.000Z</time>
      </trkpt>
      <trkpt lat="37.7119" lon="71.96569">
        <ele>2723.5</ele>
        <time>2018-08-26T10:21:09.000Z</time>
      </trkpt>
      <trkpt lat="37.71063" lon="71.96973">
        <ele>2726.6</ele>
        <time>2018-08-26T10:22:10.000Z</time>
      </trkpt>
      <trkpt lat="37.71119" lon="71.97335">
        <ele>2724.7</ele>
        <time>2018-08-26T10:23:11.000Z</time>
      </trkpt>
      <trkpt lat="37.7121" lon="71.97531">
        <ele>2724.6</ele>
        <time>2018-08-26T10:24:12.000Z</time>
      </trkpt>
      <trkpt lat="37.71297" lon="71.97663">
        <ele>2730.1</ele>
        <time>2018-08-26T10:25:38.000Z</time>
      </trkpt>
      <trkpt lat="37.71488" lon="71.97819">
        <ele>2743.7</ele>
        <time>2018-08-26T10:26:39.000Z</time>
      </trkpt>
      <trkpt lat="37.71642" lon="71.98054">
        <ele>2746</ele>
        <time>2018-08-26T10:27:40.000Z</time>
      </trkpt>
      <trkpt lat="37.71995" lon="71.98262">
        <ele>2738.7</ele>
        <time>2018-08-26T10:28:41.000Z</time>
      </trkpt>
      <trkpt lat="37.72263" lon="71.98244">
        <ele>2738.1</ele>
        <time>2018-08-26T10:29:42.000Z</time>
      </trkpt>
      <trkpt lat="37.72525" lon="71.98227">
        <ele>2740.3</ele>
        <time>2018-08-26T10:30:43.000Z</time>
      </trkpt>
      <trkpt lat="37.72786" lon="71.98171">
        <ele>2743.2</ele>
        <time>2018-08-26T10:31:44.000Z</time>
      </trkpt>
      <trkpt lat="37.7298" lon="71.98105">
        <ele>2748.2</ele>
        <time>2018-08-26T10:32:45.000Z</time>
      </trkpt>
      <trkpt lat="37.73102" lon="71.98211">
        <ele>2757.1</ele>
        <time>2018-08-26T10:33:46.000Z</time>
      </trkpt>
      <trkpt lat="37.7318" lon="71.98377">
        <ele>2762</ele>
        <time>2018-08-26T10:34:46.000Z</time>
      </trkpt>
      <trkpt lat="37.7327" lon="71.9856">
        <ele>2760.9</ele>
        <time>2018-08-26T10:35:47.000Z</time>
      </trkpt>
      <trkpt lat="37.73369" lon="71.98767">
        <ele>2764.3</ele>
        <time>2018-08-26T10:36:48.000Z</time>
      </trkpt>
      <trkpt lat="37.73435" lon="71.9892">
        <ele>2769.5</ele>
        <time>2018-08-26T10:38:27.000Z</time>
      </trkpt>
      <trkpt lat="37.73533" lon="71.99325">
        <ele>2759.3</ele>
        <time>2018-08-26T10:39:28.000Z</time>
      </trkpt>
      <trkpt lat="37.7353" lon="71.99682">
        <ele>2754</ele>
        <time>2018-08-26T10:40:28.000Z</time>
      </trkpt>
      <trkpt lat="37.73583" lon="71.99934">
        <ele>2749.6</ele>
        <time>2018-08-26T10:41:29.000Z</time>
      </trkpt>
      <trkpt lat="37.736" lon="72.00104">
        <ele>2732.7</ele>
        <time>2018-08-26T10:43:07.000Z</time>
      </trkpt>
      <trkpt lat="37.73585" lon="72.00274">
        <ele>2729.5</ele>
        <time>2018-08-26T10:44:15.000Z</time>
      </trkpt>
      <trkpt lat="37.73593" lon="72.00503">
        <ele>2756</ele>
        <time>2018-08-26T10:45:15.000Z</time>
      </trkpt>
      <trkpt lat="37.7361" lon="72.00787">
        <ele>2787.2</ele>
        <time>2018-08-26T10:46:16.000Z</time>
      </trkpt>
      <trkpt lat="37.73619" lon="72.01134">
        <ele>2814</ele>
        <time>2018-08-26T10:47:17.000Z</time>
      </trkpt>
      <trkpt lat="37.73596" lon="72.01587">
        <ele>2813.6</ele>
        <time>2018-08-26T10:48:18.000Z</time>
      </trkpt>
      <trkpt lat="37.73573" lon="72.0204">
        <ele>2813.7</ele>
        <time>2018-08-26T10:49:19.000Z</time>
      </trkpt>
      <trkpt lat="37.73328" lon="72.02516">
        <ele>2814.4</ele>
        <time>2018-08-26T10:50:20.000Z</time>
      </trkpt>
      <trkpt lat="37.72926" lon="72.02657">
        <ele>2807.4</ele>
        <time>2018-08-26T10:51:20.000Z</time>
      </trkpt>
      <trkpt lat="37.72732" lon="72.02747">
        <ele>2811.4</ele>
        <time>2018-08-26T10:52:21.000Z</time>
      </trkpt>
      <trkpt lat="37.72572" lon="72.02867">
        <ele>2812.4</ele>
        <time>2018-08-26T10:53:22.000Z</time>
      </trkpt>
      <trkpt lat="37.72495" lon="72.03068">
        <ele>2821.1</ele>
        <time>2018-08-26T10:54:23.000Z</time>
      </trkpt>
      <trkpt lat="37.72428" lon="72.03237">
        <ele>2819.4</ele>
        <time>2018-08-26T10:55:24.000Z</time>
      </trkpt>
      <trkpt lat="37.72315" lon="72.03335">
        <ele>2825.1</ele>
        <time>2018-08-26T10:56:35.000Z</time>
      </trkpt>
      <trkpt lat="37.7224" lon="72.03478">
        <ele>2838.8</ele>
        <time>2018-08-26T10:57:51.000Z</time>
      </trkpt>
      <trkpt lat="37.72172" lon="72.03696">
        <ele>2838</ele>
        <time>2018-08-26T10:58:52.000Z</time>
      </trkpt>
      <trkpt lat="37.72012" lon="72.04038">
        <ele>2827.1</ele>
        <time>2018-08-26T10:59:53.000Z</time>
      </trkpt>
      <trkpt lat="37.72" lon="72.04209">
        <ele>2815.9</ele>
        <time>2018-08-26T11:01:53.000Z</time>
      </trkpt>
      <trkpt lat="37.72041" lon="72.04467">
        <ele>2811</ele>
        <time>2018-08-26T11:02:54.000Z</time>
      </trkpt>
      <trkpt lat="37.72105" lon="72.04737">
        <ele>2807.3</ele>
        <time>2018-08-26T11:03:55.000Z</time>
      </trkpt>
      <trkpt lat="37.72197" lon="72.04933">
        <ele>2808.6</ele>
        <time>2018-08-26T11:04:56.000Z</time>
      </trkpt>
      <trkpt lat="37.72274" lon="72.05075">
        <ele>2816.4</ele>
        <time>2018-08-26T11:06:22.000Z</time>
      </trkpt>
      <trkpt lat="37.72363" lon="72.05205">
        <ele>2823.9</ele>
        <time>2018-08-26T11:07:27.000Z</time>
      </trkpt>
      <trkpt lat="37.72428" lon="72.05358">
        <ele>2823.5</ele>
        <time>2018-08-26T11:08:47.000Z</time>
      </trkpt>
      <trkpt lat="37.72503" lon="72.05503">
        <ele>2828.6</ele>
        <time>2018-08-26T11:14:14.000Z</time>
      </trkpt>
      <trkpt lat="37.7255" lon="72.05666">
        <ele>2822.5</ele>
        <time>2018-08-26T11:21:13.000Z</time>
      </trkpt>
      <trkpt lat="37.72616" lon="72.05833">
        <ele>2821</ele>
        <time>2018-08-26T11:22:14.000Z</time>
      </trkpt>
      <trkpt lat="37.72672" lon="72.0599">
        <ele>2818.2</ele>
        <time>2018-08-26T11:23:32.000Z</time>
      </trkpt>
      <trkpt lat="37.72743" lon="72.0616">
        <ele>2817</ele>
        <time>2018-08-26T11:24:33.000Z</time>
      </trkpt>
      <trkpt lat="37.72808" lon="72.06311">
        <ele>2813.6</ele>
        <time>2018-08-26T11:25:51.000Z</time>
      </trkpt>
      <trkpt lat="37.72913" lon="72.06514">
        <ele>2811</ele>
        <time>2018-08-26T11:26:52.000Z</time>
      </trkpt>
      <trkpt lat="37.73044" lon="72.06767">
        <ele>2810.9</ele>
        <time>2018-08-26T11:27:53.000Z</time>
      </trkpt>
      <trkpt lat="37.73175" lon="72.07027">
        <ele>2806</ele>
        <time>2018-08-26T11:28:54.000Z</time>
      </trkpt>
      <trkpt lat="37.73309" lon="72.0729">
        <ele>2792.1</ele>
        <time>2018-08-26T11:29:55.000Z</time>
      </trkpt>
      <trkpt lat="37.73453" lon="72.07582">
        <ele>2781.7</ele>
        <time>2018-08-26T11:30:56.000Z</time>
      </trkpt>
      <trkpt lat="37.73586" lon="72.07878">
        <ele>2781.3</ele>
        <time>2018-08-26T11:31:56.000Z</time>
      </trkpt>
      <trkpt lat="37.73664" lon="72.0809">
        <ele>2786.3</ele>
        <time>2018-08-26T11:32:57.000Z</time>
      </trkpt>
      <trkpt lat="37.7376" lon="72.08215">
        <ele>2819.4</ele>
        <time>2018-08-26T11:38:54.000Z</time>
      </trkpt>
      <trkpt lat="37.73877" lon="72.08531">
        <ele>2814.7</ele>
        <time>2018-08-26T11:39:55.000Z</time>
      </trkpt>
      <trkpt lat="37.73954" lon="72.08822">
        <ele>2804.8</ele>
        <time>2018-08-26T11:40:56.000Z</time>
      </trkpt>
      <trkpt lat="37.74038" lon="72.09115">
        <ele>2801.4</ele>
        <time>2018-08-26T11:41:57.000Z</time>
      </trkpt>
      <trkpt lat="37.74068" lon="72.09284">
        <ele>2798.7</ele>
        <time>2018-08-26T11:43:09.000Z</time>
      </trkpt>
      <trkpt lat="37.74082" lon="72.09616">
        <ele>2768.3</ele>
        <time>2018-08-26T11:44:10.000Z</time>
      </trkpt>
      <trkpt lat="37.74109" lon="72.0995">
        <ele>2725</ele>
        <time>2018-08-26T11:45:11.000Z</time>
      </trkpt>
      <trkpt lat="37.74156" lon="72.10126">
        <ele>2716.5</ele>
        <time>2018-08-26T11:47:52.000Z</time>
      </trkpt>
      <trkpt lat="37.74183" lon="72.10337">
        <ele>2717.7</ele>
        <time>2018-08-26T11:48:53.000Z</time>
      </trkpt>
      <trkpt lat="37.74211" lon="72.10746">
        <ele>2706.6</ele>
        <time>2018-08-26T11:49:54.000Z</time>
      </trkpt>
      <trkpt lat="37.74206" lon="72.10961">
        <ele>2694.3</ele>
        <time>2018-08-26T11:50:55.000Z</time>
      </trkpt>
      <trkpt lat="37.74084" lon="72.11304">
        <ele>2695.3</ele>
        <time>2018-08-26T11:51:56.000Z</time>
      </trkpt>
      <trkpt lat="37.73984" lon="72.11458">
        <ele>2703.7</ele>
        <time>2018-08-26T11:52:57.000Z</time>
      </trkpt>
      <trkpt lat="37.73856" lon="72.11777">
        <ele>2708.2</ele>
        <time>2018-08-26T11:53:58.000Z</time>
      </trkpt>
      <trkpt lat="37.7394" lon="72.12146">
        <ele>2711.4</ele>
        <time>2018-08-26T11:54:58.000Z</time>
      </trkpt>
      <trkpt lat="37.74005" lon="72.12471">
        <ele>2715.2</ele>
        <time>2018-08-26T11:55:59.000Z</time>
      </trkpt>
      <trkpt lat="37.74075" lon="72.12731">
        <ele>2721.6</ele>
        <time>2018-08-26T11:57:00.000Z</time>
      </trkpt>
      <trkpt lat="37.74061" lon="72.12907">
        <ele>2724.5</ele>
        <time>2018-08-26T11:59:00.000Z</time>
      </trkpt>
      <trkpt lat="37.74127" lon="72.13314">
        <ele>2717.5</ele>
        <time>2018-08-26T12:00:01.000Z</time>
      </trkpt>
      <trkpt lat="37.74207" lon="72.13455">
        <ele>2711.1</ele>
        <time>2018-08-26T12:03:07.000Z</time>
      </trkpt>
      <trkpt lat="37.74319" lon="72.13777">
        <ele>2712.9</ele>
        <time>2018-08-26T12:04:08.000Z</time>
      </trkpt>
      <trkpt lat="37.74329" lon="72.14661">
        <ele>2712.5</ele>
        <time>2018-08-26T12:06:00.000Z</time>
      </trkpt>
      <trkpt lat="37.74411" lon="72.14805">
        <ele>2709.2</ele>
        <time>2018-08-26T12:07:06.000Z</time>
      </trkpt>
      <trkpt lat="37.74308" lon="72.14921">
        <ele>2711.1</ele>
        <time>2018-08-26T12:14:57.000Z</time>
      </trkpt>
      <trkpt lat="37.74106" lon="72.15201">
        <ele>2716.2</ele>
        <time>2018-08-26T12:15:58.000Z</time>
      </trkpt>
      <trkpt lat="37.73946" lon="72.15305">
        <ele>2719.6</ele>
        <time>2018-08-26T12:16:59.000Z</time>
      </trkpt>
      <trkpt lat="37.74075" lon="72.15247">
        <ele>2711.3</ele>
        <time>2018-08-26T12:20:43.000Z</time>
      </trkpt>
      <trkpt lat="37.74198" lon="72.15082">
        <ele>2703.9</ele>
        <time>2018-08-26T12:21:44.000Z</time>
      </trkpt>
      <trkpt lat="37.7405" lon="72.15246">
        <ele>2697.9</ele>
        <time>2018-08-26T12:22:45.000Z</time>
      </trkpt>
      <trkpt lat="37.73894" lon="72.1529">
        <ele>2693.6</ele>
        <time>2018-08-26T12:23:46.000Z</time>
      </trkpt>
      <trkpt lat="37.73747" lon="72.15329">
        <ele>2690.7</ele>
        <time>2018-08-26T12:24:46.000Z</time>
      </trkpt>
      <trkpt lat="37.73518" lon="72.15454">
        <ele>2690.1</ele>
        <time>2018-08-26T12:25:47.000Z</time>
      </trkpt>
      <trkpt lat="37.73283" lon="72.15567">
        <ele>2692.9</ele>
        <time>2018-08-26T12:26:47.000Z</time>
      </trkpt>
      <trkpt lat="37.73088" lon="72.15648">
        <ele>2697</ele>
        <time>2018-08-26T12:27:48.000Z</time>
      </trkpt>
      <trkpt lat="37.72957" lon="72.15689">
        <ele>2703.6</ele>
        <time>2018-08-26T12:30:01.000Z</time>
      </trkpt>
      <trkpt lat="37.72833" lon="72.15764">
        <ele>2707.3</ele>
        <time>2018-08-26T12:31:23.000Z</time>
      </trkpt>
    </trkseg>
  </trk>
</gpx>